createdAt,value
2018-09-22T00:01:15.797Z,13.80
2018-09-22T00:03:45.213Z,13.80
2018-09-22T00:06:14.498Z,13.80
2018-09-22T00:08:43.467Z,13.80
2018-09-22T00:11:12.624Z,13.80
2018-09-22T00:13:41.713Z,13.80
2018-09-22T00:16:10.782Z,13.80
2018-09-22T00:18:39.760Z,13.70
2018-09-22T00:21:09.014Z,13.70
2018-09-22T00:23:38.256Z,13.70
2018-09-22T00:26:07.611Z,13.60
2018-09-22T00:28:36.684Z,13.60
2018-09-22T00:31:05.717Z,13.60
2018-09-22T00:33:34.749Z,13.60
2018-09-22T00:36:04.126Z,13.60
2018-09-22T00:38:33.489Z,13.60
2018-09-22T00:41:02.481Z,13.60
2018-09-22T00:43:31.528Z,13.50
2018-09-22T00:46:00.569Z,13.50
2018-09-22T00:48:29.520Z,13.50
2018-09-22T00:50:58.540Z,13.40
2018-09-22T00:53:27.686Z,13.50
2018-09-22T00:55:56.713Z,13.50
2018-09-22T00:58:26.075Z,13.40
2018-09-22T01:00:55.111Z,13.40
2018-09-22T01:03:24.103Z,13.40
2018-09-22T01:05:53.195Z,13.40
2018-09-22T01:08:22.273Z,13.30
2018-09-22T01:10:51.305Z,13.30
2018-09-22T01:13:20.666Z,13.20
2018-09-22T01:15:49.702Z,13.20
2018-09-22T01:18:18.896Z,13.20
2018-09-22T01:20:47.858Z,13.20
2018-09-22T01:23:16.919Z,13.20
2018-09-22T01:25:45.978Z,13.20
2018-09-22T01:28:15.019Z,13.20
2018-09-22T01:30:44.159Z,13.10
2018-09-22T01:33:13.210Z,13.10
2018-09-22T01:35:42.375Z,13.00
2018-09-22T01:38:11.379Z,13.00
2018-09-22T01:40:40.380Z,13.00
2018-09-22T01:43:09.704Z,13.00
2018-09-22T01:45:38.854Z,13.00
2018-09-22T01:48:07.861Z,13.00
2018-09-22T01:50:36.953Z,13.00
2018-09-22T01:53:06.157Z,12.90
2018-09-22T01:55:35.117Z,12.90
2018-09-22T01:58:04.116Z,12.80
2018-09-22T02:00:33.070Z,12.80
2018-09-22T02:03:02.188Z,12.80
2018-09-22T02:05:31.170Z,12.70
2018-09-22T02:08:00.224Z,12.70
2018-09-22T02:10:29.311Z,12.70
2018-09-22T02:12:58.343Z,12.70
2018-09-22T02:15:27.312Z,12.70
2018-09-22T02:17:56.422Z,12.70
2018-09-22T02:20:25.418Z,12.70
2018-09-22T02:22:54.552Z,12.70
2018-09-22T02:25:23.560Z,12.60
2018-09-22T02:27:53.145Z,12.60
2018-09-22T02:30:22.106Z,12.60
2018-09-22T02:32:51.193Z,12.60
2018-09-22T02:35:20.215Z,12.60
2018-09-22T02:37:49.253Z,12.60
2018-09-22T02:40:18.277Z,12.50
2018-09-22T02:42:47.417Z,12.50
2018-09-22T02:45:16.391Z,12.50
2018-09-22T02:47:45.432Z,12.50
2018-09-22T02:50:14.481Z,12.40
2018-09-22T02:52:43.631Z,12.40
2018-09-22T02:55:12.651Z,12.40
2018-09-22T02:57:41.615Z,12.40
2018-09-22T03:00:10.683Z,12.40
2018-09-22T03:02:39.819Z,12.30
2018-09-22T03:05:08.829Z,12.30
2018-09-22T03:07:38.772Z,12.30
2018-09-22T03:10:07.847Z,12.30
2018-09-22T03:12:36.858Z,12.20
2018-09-22T03:15:06.458Z,12.20
2018-09-22T03:17:35.643Z,12.20
2018-09-22T03:20:05.018Z,12.20
2018-09-22T03:22:33.971Z,12.20
2018-09-22T03:25:03.188Z,12.20
2018-09-22T03:27:32.630Z,12.20
2018-09-22T03:30:01.778Z,12.20
2018-09-22T03:32:31.554Z,12.20
2018-09-22T03:35:00.705Z,12.20
2018-09-22T03:37:29.687Z,12.20
2018-09-22T03:39:59.430Z,12.10
2018-09-22T03:42:28.421Z,12.10
2018-09-22T03:44:57.502Z,12.10
2018-09-22T03:47:26.633Z,12.10
2018-09-22T03:49:55.710Z,12.10
2018-09-22T03:52:24.803Z,12.00
2018-09-22T03:54:53.859Z,12.00
2018-09-22T03:57:22.930Z,11.90
2018-09-22T03:59:52.033Z,11.90
2018-09-22T04:02:21.082Z,11.80
2018-09-22T04:04:50.043Z,11.80
2018-09-22T04:07:19.125Z,11.80
2018-09-22T04:09:48.160Z,11.80
2018-09-22T04:12:17.184Z,11.70
2018-09-22T04:14:46.197Z,11.70
2018-09-22T04:17:15.231Z,11.70
2018-09-22T04:19:44.494Z,11.70
2018-09-22T04:22:13.490Z,11.70
2018-09-22T04:24:42.537Z,11.70
2018-09-22T04:27:11.561Z,11.70
2018-09-22T04:29:40.603Z,11.60
2018-09-22T04:32:09.684Z,11.60
2018-09-22T04:34:38.727Z,11.60
2018-09-22T04:37:07.911Z,11.60
2018-09-22T04:39:36.995Z,11.60
2018-09-22T04:42:06.215Z,11.60
2018-09-22T04:44:35.200Z,11.60
2018-09-22T04:47:04.291Z,11.60
2018-09-22T04:49:33.246Z,11.60
2018-09-22T04:52:02.360Z,11.60
2018-09-22T04:54:31.306Z,11.60
2018-09-22T04:57:00.377Z,11.60
2018-09-22T04:59:29.354Z,11.60
2018-09-22T05:01:58.391Z,11.60
2018-09-22T05:04:27.355Z,11.60
2018-09-22T05:06:56.810Z,11.50
2018-09-22T05:09:25.777Z,11.50
2018-09-22T05:11:54.834Z,11.50
2018-09-22T05:14:23.842Z,11.50
2018-09-22T05:16:52.907Z,11.50
2018-09-22T05:19:21.951Z,11.50
2018-09-22T05:21:51.020Z,11.50
2018-09-22T05:24:20.009Z,11.50
2018-09-22T05:26:49.040Z,11.60
2018-09-22T05:29:18.018Z,11.60
2018-09-22T05:31:47.094Z,11.60
2018-09-22T05:34:16.110Z,11.60
2018-09-22T05:36:45.270Z,11.60
2018-09-22T05:39:14.257Z,11.70
2018-09-22T05:41:43.306Z,11.70
2018-09-22T05:44:12.220Z,11.80
2018-09-22T05:46:41.242Z,11.80
2018-09-22T05:49:10.200Z,11.80
2018-09-22T05:51:39.234Z,11.90
2018-09-22T05:54:08.218Z,11.90
2018-09-22T05:56:37.838Z,12.00
2018-09-22T05:59:07.024Z,12.00
2018-09-22T06:01:35.979Z,12.00
2018-09-22T06:04:04.961Z,12.10
2018-09-22T06:06:34.000Z,12.10
2018-09-22T06:09:03.215Z,12.10
2018-09-22T06:14:01.446Z,12.10
2018-09-22T06:16:30.420Z,12.10
2018-09-22T06:18:59.382Z,12.10
2018-09-22T06:21:28.377Z,12.20
2018-09-22T06:23:58.110Z,12.20
2018-09-22T06:26:27.279Z,12.20
2018-09-22T06:28:56.554Z,12.20
2018-09-22T06:31:25.457Z,12.30
2018-09-22T06:33:55.212Z,12.30
2018-09-22T06:36:24.166Z,12.40
2018-09-22T06:38:53.213Z,12.50
2018-09-22T06:41:22.349Z,12.50
2018-09-22T06:43:51.400Z,12.50
2018-09-22T06:46:20.371Z,12.50
2018-09-22T06:48:50.195Z,12.50
2018-09-22T06:51:19.262Z,12.50
2018-09-22T06:53:48.560Z,12.50
2018-09-22T06:56:17.658Z,12.60
2018-09-22T06:58:46.961Z,12.60
2018-09-22T07:01:16.047Z,12.70
2018-09-22T07:03:45.130Z,12.70
2018-09-22T07:06:14.201Z,12.80
2018-09-22T07:08:43.234Z,12.90
2018-09-22T07:11:12.345Z,12.90
2018-09-22T07:13:41.528Z,12.90
2018-09-22T07:16:10.527Z,12.90
2018-09-22T07:18:39.569Z,13.00
2018-09-22T07:21:09.448Z,13.10
2018-09-22T07:23:38.453Z,13.10
2018-09-22T07:26:07.405Z,13.10
2018-09-22T07:28:36.421Z,13.20
2018-09-22T07:31:05.657Z,13.20
2018-09-22T07:33:34.778Z,13.10
2018-09-22T07:36:03.957Z,13.20
2018-09-22T07:38:32.938Z,13.20
2018-09-22T07:41:01.940Z,13.30
2018-09-22T07:43:30.919Z,13.30
2018-09-22T07:45:59.923Z,13.30
2018-09-22T07:48:28.882Z,13.40
2018-09-22T07:50:57.834Z,13.50
2018-09-22T07:53:27.095Z,13.50
2018-09-22T07:55:56.491Z,13.60
2018-09-22T07:58:25.492Z,13.60
2018-09-22T08:00:54.680Z,13.60
2018-09-22T08:03:24.352Z,13.70
2018-09-22T08:05:53.974Z,13.80
2018-09-22T08:08:22.942Z,13.90
2018-09-22T08:10:52.236Z,13.90
2018-09-22T08:13:21.297Z,13.90
2018-09-22T08:15:50.365Z,13.90
2018-09-22T08:18:19.335Z,14.00
2018-09-22T08:20:48.349Z,13.90
2018-09-22T08:23:17.454Z,13.90
2018-09-22T08:25:46.619Z,14.00
2018-09-22T08:28:15.970Z,14.00
2018-09-22T08:30:45.014Z,14.10
2018-09-22T08:33:14.247Z,14.20
2018-09-22T08:35:43.531Z,14.40
2018-09-22T08:38:12.742Z,14.60
2018-09-22T08:40:41.754Z,14.70
2018-09-22T08:43:11.414Z,14.60
2018-09-22T08:45:40.465Z,14.60
2018-09-22T08:48:12.529Z,14.70
2018-09-22T08:50:41.828Z,14.80
2018-09-22T08:53:11.129Z,14.90
2018-09-22T08:55:40.195Z,15.10
2018-09-22T08:58:09.207Z,15.20
2018-09-22T09:00:38.217Z,15.30
2018-09-22T09:03:07.402Z,15.40
2018-09-22T09:05:36.415Z,15.40
2018-09-22T09:08:05.445Z,15.40
2018-09-22T09:10:34.492Z,15.30
2018-09-22T09:13:03.614Z,15.30
2018-09-22T09:15:32.622Z,15.20
2018-09-22T09:18:01.680Z,15.20
2018-09-22T09:20:30.722Z,15.20
2018-09-22T09:22:59.797Z,15.30
2018-09-22T09:25:28.838Z,15.20
2018-09-22T09:27:57.842Z,15.30
2018-09-22T09:30:26.813Z,15.20
2018-09-22T09:32:55.904Z,15.20
2018-09-22T09:35:25.058Z,15.10
2018-09-22T09:37:54.079Z,15.20
2018-09-22T09:40:23.166Z,15.30
2018-09-22T09:42:52.318Z,15.30
2018-09-22T09:45:21.307Z,15.50
2018-09-22T09:47:50.334Z,15.50
2018-09-22T09:50:19.395Z,15.60
2018-09-22T09:52:48.457Z,15.60
2018-09-22T09:55:17.483Z,15.50
2018-09-22T09:57:46.446Z,15.60
2018-09-22T10:00:16.872Z,15.50
2018-09-22T10:02:45.922Z,15.50
2018-09-22T10:05:14.926Z,15.60
2018-09-22T10:07:43.901Z,15.60
2018-09-22T10:10:12.937Z,15.70
2018-09-22T10:12:41.917Z,15.80
2018-09-22T10:15:10.908Z,15.90
2018-09-22T10:17:39.939Z,16.10
2018-09-22T10:20:08.943Z,16.10
2018-09-22T10:22:37.948Z,16.00
2018-09-22T10:25:07.132Z,16.10
2018-09-22T10:27:36.137Z,16.20
2018-09-22T10:30:05.550Z,16.10
2018-09-22T10:32:34.510Z,16.10
2018-09-22T10:35:03.654Z,16.10
2018-09-22T10:37:33.003Z,16.10
2018-09-22T10:40:02.447Z,16.00
2018-09-22T10:42:31.559Z,16.00
2018-09-22T10:45:00.647Z,16.00
2018-09-22T10:47:29.661Z,16.10
2018-09-22T10:49:58.708Z,16.10
2018-09-22T10:52:27.784Z,15.90
2018-09-22T10:54:56.917Z,15.90
2018-09-22T10:57:25.885Z,16.00
2018-09-22T10:59:55.042Z,15.90
2018-09-22T11:02:24.099Z,16.00
2018-09-22T11:04:53.121Z,16.00
2018-09-22T11:07:22.346Z,16.20
2018-09-22T11:09:51.333Z,16.20
2018-09-22T11:12:20.538Z,16.30
2018-09-22T11:14:49.741Z,16.40
2018-09-22T11:17:18.775Z,16.40
2018-09-22T11:19:47.772Z,16.50
2018-09-22T11:22:16.735Z,16.80
2018-09-22T11:24:45.803Z,16.80
2018-09-22T11:27:14.870Z,16.80
2018-09-22T11:29:43.897Z,16.70
2018-09-22T11:32:12.987Z,16.80
2018-09-22T11:34:42.010Z,17.00
2018-09-22T11:37:11.080Z,17.20
2018-09-22T11:39:40.112Z,17.20
2018-09-22T11:42:09.123Z,17.30
2018-09-22T11:44:38.230Z,17.40
2018-09-22T11:47:07.372Z,17.40
2018-09-22T11:49:36.364Z,17.30
2018-09-22T11:52:05.378Z,17.40
2018-09-22T11:54:34.419Z,17.60
2018-09-22T11:57:03.402Z,17.60
2018-09-22T11:59:32.491Z,17.40
2018-09-22T12:02:01.870Z,17.50
2018-09-22T12:04:30.882Z,17.90
2018-09-22T12:06:59.861Z,18.00
2018-09-22T12:09:28.926Z,18.00
2018-09-22T12:11:57.894Z,18.00
2018-09-22T12:14:26.867Z,18.00
2018-09-22T12:16:56.161Z,18.10
2018-09-22T12:19:25.138Z,18.20
2018-09-22T12:21:54.158Z,18.20
2018-09-22T12:24:23.159Z,17.90
2018-09-22T12:26:52.290Z,17.80
2018-09-22T12:29:21.283Z,18.10
2018-09-22T12:31:50.330Z,18.30
2018-09-22T12:34:19.271Z,18.20
2018-09-22T12:36:48.246Z,18.20
2018-09-22T12:39:17.329Z,18.40
2018-09-22T12:41:46.302Z,18.40
2018-09-22T12:44:15.301Z,18.20
2018-09-22T12:46:44.424Z,18.30
2018-09-22T12:49:13.540Z,18.40
2018-09-22T12:51:42.567Z,18.10
2018-09-22T12:54:11.571Z,17.90
2018-09-22T12:56:40.670Z,17.80
2018-09-22T12:59:09.772Z,17.70
2018-09-22T13:01:38.799Z,17.70
2018-09-22T13:04:07.905Z,17.70
2018-09-22T13:06:36.836Z,17.70
2018-09-22T13:09:07.876Z,17.60
2018-09-22T13:11:36.829Z,17.70
2018-09-22T13:14:05.973Z,17.60
2018-09-22T13:16:35.032Z,17.60
2018-09-22T13:19:04.198Z,17.60
2018-09-22T13:21:33.211Z,17.60
2018-09-22T13:24:02.255Z,17.50
2018-09-22T13:26:31.207Z,17.50
2018-09-22T13:29:00.222Z,17.50
2018-09-22T13:31:29.574Z,17.50
2018-09-22T13:33:58.650Z,17.60
2018-09-22T13:36:27.654Z,17.70
2018-09-22T13:38:56.714Z,17.50
2018-09-22T13:41:25.700Z,17.40
2018-09-22T13:43:54.677Z,17.30
2018-09-22T13:46:23.686Z,17.40
2018-09-22T13:48:52.734Z,17.60
2018-09-22T13:51:21.747Z,17.60
2018-09-22T13:53:51.513Z,17.60
2018-09-22T13:56:20.555Z,17.60
2018-09-22T13:58:49.535Z,17.50
2018-09-22T14:01:18.529Z,17.50
2018-09-22T14:03:47.589Z,17.50
2018-09-22T14:06:16.578Z,17.50
2018-09-22T14:08:45.777Z,17.50
2018-09-22T14:11:14.829Z,17.60
2018-09-22T14:13:43.871Z,17.70
2018-09-22T14:16:12.867Z,17.80
2018-09-22T14:18:41.903Z,17.90
2018-09-22T14:21:10.881Z,17.90
2018-09-22T14:23:39.875Z,17.80
2018-09-22T14:26:08.909Z,17.80
2018-09-22T14:28:38.057Z,17.70
2018-09-22T14:31:07.038Z,17.60
2018-09-22T14:33:36.056Z,17.60
2018-09-22T14:36:05.191Z,17.60
2018-09-22T14:38:34.153Z,17.60
2018-09-22T14:41:03.156Z,17.50
2018-09-22T14:43:35.290Z,17.40
2018-09-22T14:46:04.445Z,17.30
2018-09-22T14:48:33.402Z,17.20
2018-09-22T14:51:02.510Z,17.20
2018-09-22T14:53:31.521Z,17.10
2018-09-22T14:56:00.533Z,17.10
2018-09-22T14:58:29.539Z,17.00
2018-09-22T15:00:58.719Z,17.00
2018-09-22T15:03:27.743Z,17.00
2018-09-22T15:05:57.037Z,17.00
2018-09-22T15:08:26.014Z,17.00
2018-09-22T15:10:55.057Z,16.90
2018-09-22T15:13:24.110Z,16.90
2018-09-22T15:15:53.162Z,16.90
2018-09-22T15:18:22.179Z,16.90
2018-09-22T15:20:51.250Z,16.90
2018-09-22T15:23:20.319Z,16.90
2018-09-22T15:25:49.546Z,16.90
2018-09-22T15:28:18.530Z,17.00
2018-09-22T15:30:47.529Z,17.00
2018-09-22T15:33:16.578Z,17.00
2018-09-22T15:35:45.562Z,17.00
2018-09-22T15:38:14.611Z,17.00
2018-09-22T15:40:43.630Z,17.10
2018-09-22T15:43:12.838Z,17.10
2018-09-22T15:45:41.915Z,17.10
2018-09-22T15:48:10.936Z,17.20
2018-09-22T15:50:39.992Z,17.10
2018-09-22T15:53:09.241Z,17.00
2018-09-22T15:55:38.187Z,17.00
2018-09-22T15:58:07.210Z,17.00
2018-09-22T16:00:36.186Z,16.90
2018-09-22T16:03:05.246Z,16.90
2018-09-22T16:05:34.241Z,16.90
2018-09-22T16:08:03.430Z,16.90
2018-09-22T16:10:32.420Z,16.80
2018-09-22T16:13:01.611Z,16.90
2018-09-22T16:15:30.589Z,16.80
2018-09-22T16:17:59.787Z,16.80
2018-09-22T16:20:28.984Z,16.80
2018-09-22T16:22:58.135Z,16.80
2018-09-22T16:25:27.128Z,16.70
2018-09-22T16:27:56.126Z,16.70
2018-09-22T16:30:25.114Z,16.70
2018-09-22T16:32:54.304Z,16.70
2018-09-22T16:35:23.251Z,16.60
2018-09-22T16:37:52.238Z,16.60
2018-09-22T16:40:21.314Z,16.60
2018-09-22T16:42:50.493Z,16.60
2018-09-22T16:45:19.507Z,16.50
2018-09-22T16:47:48.549Z,16.50
2018-09-22T16:50:17.605Z,16.50
2018-09-22T16:52:46.654Z,16.50
2018-09-22T16:55:15.812Z,16.40
2018-09-22T16:57:44.811Z,16.40
2018-09-22T17:00:13.787Z,16.40
2018-09-22T17:02:42.818Z,16.40
2018-09-22T17:05:11.806Z,16.40
2018-09-22T17:07:40.931Z,16.30
2018-09-22T17:10:10.021Z,16.30
2018-09-22T17:12:39.133Z,16.30
2018-09-22T17:15:08.123Z,16.30
2018-09-22T17:17:37.491Z,16.20
2018-09-22T17:20:06.527Z,16.20
2018-09-22T17:22:35.626Z,16.20
2018-09-22T17:25:04.643Z,16.10
2018-09-22T17:27:33.775Z,16.10
2018-09-22T17:30:02.933Z,16.10
2018-09-22T17:32:31.917Z,16.10
2018-09-22T17:35:00.967Z,16.10
2018-09-22T17:37:30.019Z,16.10
2018-09-22T17:39:59.634Z,16.20
2018-09-22T17:42:28.675Z,16.10
2018-09-22T17:44:57.700Z,16.00
2018-09-22T17:47:26.779Z,15.90
2018-09-22T17:49:55.802Z,15.90
2018-09-22T17:52:24.822Z,15.90
2018-09-22T17:54:53.854Z,15.90
2018-09-22T17:57:22.913Z,16.00
2018-09-22T17:59:51.881Z,15.90
2018-09-22T18:02:21.007Z,15.90
2018-09-22T18:04:50.051Z,15.90
2018-09-22T18:07:19.129Z,15.90
2018-09-22T18:09:48.175Z,15.90
2018-09-22T18:12:17.203Z,15.90
2018-09-22T18:14:46.307Z,15.90
2018-09-22T18:17:15.438Z,15.90
2018-09-22T18:19:44.424Z,15.90
2018-09-22T18:22:13.509Z,15.90
2018-09-22T18:24:42.502Z,15.90
2018-09-22T18:27:11.631Z,15.90
2018-09-22T18:29:40.681Z,15.90
2018-09-22T18:32:12.437Z,15.80
2018-09-22T18:34:41.571Z,15.80
2018-09-22T18:37:10.589Z,15.80
2018-09-22T18:39:39.706Z,15.80
2018-09-22T18:42:08.703Z,15.70
2018-09-22T18:44:37.755Z,15.70
2018-09-22T18:47:06.743Z,15.70
2018-09-22T18:49:35.761Z,15.70
2018-09-22T18:52:04.794Z,15.70
2018-09-22T18:54:33.982Z,15.60
2018-09-22T18:57:03.740Z,15.60
2018-09-22T18:59:34.022Z,15.60
2018-09-22T19:02:03.592Z,15.60
2018-09-22T19:04:33.446Z,15.60
2018-09-22T19:07:02.461Z,15.50
2018-09-22T19:09:31.626Z,15.60
2018-09-22T19:12:00.879Z,15.50
2018-09-22T19:15:36.524Z,15.50
2018-09-22T19:18:10.843Z,15.50
2018-09-22T19:20:58.538Z,15.50
2018-09-22T19:23:44.910Z,15.50
2018-09-22T19:26:18.011Z,15.50
2018-09-22T19:28:52.522Z,15.40
2018-09-22T19:31:25.258Z,15.40
2018-09-22T19:33:57.211Z,15.40
2018-09-22T19:36:31.070Z,15.30
2018-09-22T19:39:03.450Z,15.30
2018-09-22T19:42:06.404Z,15.30
2018-09-22T19:44:38.662Z,15.30
2018-09-22T19:47:14.313Z,15.40
2018-09-22T19:49:47.949Z,15.40
2018-09-22T19:52:21.251Z,15.40
2018-09-22T19:54:50.323Z,15.30
2018-09-22T19:57:19.364Z,15.30
2018-09-22T19:59:48.525Z,15.30
2018-09-22T20:02:17.559Z,15.40
2018-09-22T20:04:46.734Z,15.30
2018-09-22T20:07:16.097Z,15.30
2018-09-22T20:09:46.311Z,15.30
2018-09-22T20:12:15.349Z,15.20
2018-09-22T20:14:48.774Z,15.30
2018-09-22T20:17:18.143Z,15.20
2018-09-22T20:19:47.109Z,15.20
2018-09-22T20:22:16.176Z,15.20
2018-09-22T20:24:45.225Z,15.20
2018-09-22T20:27:14.363Z,15.20
2018-09-22T20:29:43.774Z,15.20
2018-09-22T20:32:12.734Z,15.20
2018-09-22T20:34:42.833Z,15.10
2018-09-22T20:37:11.894Z,15.10
2018-09-22T20:39:41.889Z,15.10
2018-09-22T20:42:10.920Z,15.10
2018-09-22T20:44:40.919Z,15.10
2018-09-22T20:47:10.281Z,15.10
2018-09-22T20:49:39.779Z,15.10
2018-09-22T20:52:08.813Z,15.00
2018-09-22T20:54:38.139Z,15.00
2018-09-22T20:57:07.878Z,15.10
2018-09-22T20:59:36.940Z,15.10
2018-09-22T21:02:07.977Z,15.10
2018-09-22T21:04:37.094Z,15.10
2018-09-22T21:07:06.273Z,15.00
2018-09-22T21:09:37.231Z,15.10
2018-09-22T21:12:06.658Z,15.00
2018-09-22T21:14:36.074Z,15.00
2018-09-22T21:17:05.932Z,15.00
2018-09-22T21:19:35.727Z,15.00
2018-09-22T21:22:04.720Z,15.00
2018-09-22T21:24:33.772Z,14.90
2018-09-22T21:27:02.854Z,14.80
2018-09-22T21:29:31.970Z,14.80
2018-09-22T21:32:00.999Z,14.70
2018-09-22T21:34:29.938Z,14.70
2018-09-22T21:36:58.926Z,14.60
2018-09-22T21:39:27.878Z,14.60
2018-09-22T21:41:56.955Z,14.60
2018-09-22T21:44:25.919Z,14.50
2018-09-22T21:46:54.993Z,14.50
2018-09-22T21:49:23.986Z,14.40
2018-09-22T21:51:53.017Z,14.40
2018-09-22T21:54:22.099Z,14.30
2018-09-22T21:56:51.211Z,14.30
2018-09-22T21:59:20.689Z,14.30
2018-09-22T22:01:49.632Z,14.30
2018-09-22T22:04:18.662Z,14.20
2018-09-22T22:06:47.781Z,14.30
2018-09-22T22:09:16.793Z,14.30
2018-09-22T22:11:45.815Z,14.20
2018-09-22T22:14:15.164Z,14.20
2018-09-22T22:16:44.174Z,14.20
2018-09-22T22:19:13.260Z,14.20
2018-09-22T22:21:42.306Z,14.10
2018-09-22T22:24:11.326Z,14.10
2018-09-22T22:26:40.328Z,14.10
2018-09-22T22:29:09.547Z,14.10
2018-09-22T22:31:38.623Z,14.10
2018-09-22T22:34:07.617Z,14.10
2018-09-22T22:36:36.662Z,14.00
2018-09-22T22:39:06.725Z,14.00
2018-09-22T22:41:35.715Z,14.00
2018-09-22T22:44:04.748Z,14.00
2018-09-22T22:46:33.765Z,14.00
2018-09-22T22:49:03.060Z,14.00
2018-09-22T22:51:32.083Z,13.90
2018-09-22T22:54:01.119Z,13.90
2018-09-22T22:56:30.205Z,13.90
2018-09-22T22:58:59.212Z,13.90
2018-09-22T23:01:28.217Z,13.80
2018-09-22T23:03:57.231Z,13.80
2018-09-22T23:06:26.310Z,13.80
2018-09-22T23:08:55.348Z,13.80
2018-09-22T23:11:24.345Z,13.80
2018-09-22T23:13:53.328Z,13.80
2018-09-22T23:16:22.537Z,13.80
2018-09-22T23:18:51.679Z,13.80
2018-09-22T23:21:20.627Z,13.80
2018-09-22T23:23:49.631Z,13.80
2018-09-22T23:26:18.657Z,13.80
2018-09-22T23:28:47.783Z,13.80
2018-09-22T23:31:16.745Z,13.80
2018-09-22T23:33:45.752Z,13.80
2018-09-22T23:36:14.701Z,13.80
2018-09-22T23:38:43.737Z,13.80
2018-09-22T23:41:12.860Z,13.80
2018-09-22T23:43:41.842Z,13.70
2018-09-22T23:46:11.000Z,13.70
2018-09-22T23:48:40.050Z,13.70
2018-09-22T23:51:09.063Z,13.80
2018-09-22T23:53:38.193Z,13.80
2018-09-22T23:56:07.240Z,13.70
2018-09-22T23:58:36.258Z,13.70
